Time;durP1;ratioP1;P1;durP2;ratioP2;P2;SDS_P1;SDS_P2;PMS_P1;PMS_P2;Temp;Humidity;BMP_temperature;BMP_pressure;BME280_temperature;BME280_humidity;BME280_pressure;Samples;Min_cycle;Max_cycle;Signal;HPM_P1;HPM_P2
2022/06/28 00:00:40;;;;;;;27.90;25.10;;;12.80;99.90;;;;;;5153163;27;20417;-63
2022/06/28 00:03:06;;;;;;;25.17;22.58;;;12.80;99.90;;;;;;5136778;27;20043;-64
2022/06/28 00:05:33;;;;;;;27.42;24.20;;;12.80;99.90;;;;;;5121393;27;20376;-63
2022/06/28 00:07:59;;;;;;;28.92;25.77;;;12.80;99.90;;;;;;5121530;27;20051;-64
2022/06/28 00:10:26;;;;;;;27.00;24.15;;;12.70;99.90;;;;;;5133962;27;20047;-64
2022/06/28 00:12:52;;;;;;;27.65;25.05;;;12.70;99.90;;;;;;5105915;27;20054;-64
2022/06/28 00:18:03;;;;;;;25.98;23.27;;;12.70;99.90;;;;;;5095294;27;20036;-65
2022/06/28 00:20:29;;;;;;;25.17;22.70;;;12.60;99.90;;;;;;5088894;28;20048;-64
2022/06/28 00:22:55;;;;;;;25.23;22.73;;;12.60;99.90;;;;;;5103478;27;20035;-64
2022/06/28 00:25:21;;;;;;;27.17;24.30;;;12.60;99.90;;;;;;5093265;27;20098;-66
2022/06/28 00:27:47;;;;;;;25.05;22.45;;;12.60;99.90;;;;;;5090667;27;20047;-64
2022/06/28 00:30:14;;;;;;;27.13;24.23;;;12.60;99.90;;;;;;5089699;28;20068;-64
2022/06/28 00:32:40;;;;;;;27.55;24.85;;;12.60;99.90;;;;;;5093582;27;20062;-64
2022/06/28 00:35:07;;;;;;;28.67;25.50;;;12.50;99.90;;;;;;5104213;27;20043;-64
2022/06/28 00:37:33;;;;;;;31.33;27.92;;;12.50;99.90;;;;;;5094699;27;20493;-63
2022/06/28 00:40:00;;;;;;;28.65;25.85;;;12.60;99.90;;;;;;5045730;28;20114;-64
2022/06/28 00:42:26;;;;;;;26.83;24.23;;;12.50;99.90;;;;;;5075243;28;20399;-64
2022/06/28 00:44:53;;;;;;;28.60;25.85;;;12.50;99.90;;;;;;5095663;27;20054;-63
2022/06/28 00:47:19;;;;;;;30.25;26.65;;;12.50;99.90;;;;;;5083554;28;20071;-64
2022/06/28 00:49:45;;;;;;;28.70;25.85;;;12.50;99.90;;;;;;5079343;28;20105;-64
2022/06/28 00:52:13;;;;;;;29.08;25.98;;;12.50;99.90;;;;;;5100521;27;20036;-63
2022/06/28 00:54:40;;;;;;;28.27;25.45;;;12.50;99.90;;;;;;5065967;28;20052;-64
2022/06/28 00:57:06;;;;;;;29.25;26.45;;;12.40;99.90;;;;;;5093304;28;20108;-64
2022/06/28 00:59:33;;;;;;;31.25;27.77;;;12.40;99.90;;;;;;5092320;28;20074;-64
2022/06/28 01:02:01;;;;;;;30.35;27.38;;;12.40;99.90;;;;;;5077314;27;20449;-64
2022/06/28 01:04:28;;;;;;;30.65;27.48;;;12.40;99.90;;;;;;5081264;28;20063;-64
2022/06/28 01:06:55;;;;;;;28.95;26.30;;;12.40;99.90;;;;;;5096827;27;20510;-64
2022/06/28 01:09:23;;;;;;;30.55;27.40;;;12.30;99.90;;;;;;5065494;28;20047;-64
2022/06/28 01:11:49;;;;;;;29.05;26.13;;;12.30;99.90;;;;;;5093588;27;20101;-64
2022/06/28 01:14:15;;;;;;;28.70;25.90;;;12.30;99.90;;;;;;5087172;28;20043;-64
2022/06/28 01:17:00;;;;;;;31.85;27.83;;;12.30;99.90;;;;;;5069720;28;20056;-63
2022/06/28 01:19:38;;;;;;;26.90;24.20;;;12.20;99.90;;;;;;5075830;28;20048;-65
2022/06/28 01:22:16;;;;;;;27.73;25.10;;;12.20;99.90;;;;;;5090649;28;20044;-63
2022/06/28 01:24:42;;;;;;;29.58;26.50;;;12.20;99.90;;;;;;5097059;28;20694;-63
2022/06/28 01:27:12;;;;;;;29.83;26.83;;;12.20;99.90;;;;;;5095307;28;20485;-58
2022/06/28 01:29:39;;;;;;;29.85;26.75;;;12.20;99.90;;;;;;5093371;28;20457;-57
2022/06/28 01:32:26;;;;;;;30.85;27.67;;;12.20;99.90;;;;;;5086055;28;20078;-58
2022/06/28 01:34:52;;;;;;;31.42;27.88;;;12.20;99.90;;;;;;5094044;28;20591;-57
2022/06/28 01:37:23;;;;;;;30.10;27.08;;;12.20;99.90;;;;;;5070698;28;20435;-58
2022/06/28 01:39:49;;;;;;;28.55;25.73;;;12.20;99.90;;;;;;5077752;28;20059;-57
2022/06/28 01:42:16;;;;;;;28.88;25.85;;;12.20;99.90;;;;;;5098109;28;20043;-64
2022/06/28 01:44:45;;;;;;;30.13;27.00;;;12.20;99.90;;;;;;5075495;28;20039;-64
2022/06/28 01:47:34;;;;;;;27.15;24.33;;;12.10;99.90;;;;;;5086405;28;20067;-64
2022/06/28 01:50:00;;;;;;;26.05;23.45;;;12.10;99.90;;;;;;5092992;28;20048;-64
2022/06/28 01:52:30;;;;;;;25.90;23.23;;;12.10;99.90;;;;;;5066506;28;20105;-63
2022/06/28 01:55:03;;;;;;;26.88;24.08;;;12.00;99.90;;;;;;5091336;28;20043;-59
2022/06/28 01:57:31;;;;;;;28.40;25.60;;;12.00;99.90;;;;;;5100585;28;20043;-59
2022/06/28 01:59:59;;;;;;;27.50;24.70;;;12.00;99.90;;;;;;5079145;28;20568;-59
2022/06/28 02:02:46;;;;;;;27.45;24.73;;;12.00;99.90;;;;;;5081315;28;20043;-58
2022/06/28 02:05:35;;;;;;;26.88;24.17;;;11.90;99.90;;;;;;5090239;28;20051;-61
2022/06/28 02:08:02;;;;;;;29.92;25.75;;;11.90;99.90;;;;;;5090225;28;20589;-58
2022/06/28 02:10:39;;;;;;;27.10;24.33;;;11.90;99.90;;;;;;5076586;28;20127;-58
2022/06/28 02:13:06;;;;;;;32.10;25.42;;;11.90;99.90;;;;;;5082786;28;20549;-58
2022/06/28 02:15:32;;;;;;;29.83;26.58;;;11.90;99.90;;;;;;5092257;27;20588;-58
2022/06/28 02:17:59;;;;;;;30.13;26.92;;;11.90;99.90;;;;;;5095385;28;20416;-59
2022/06/28 02:20:26;;;;;;;26.42;23.67;;;11.90;99.90;;;;;;5103579;27;20052;-58
2022/06/28 02:22:53;;;;;;;27.35;23.88;;;11.80;99.90;;;;;;5096028;28;20452;-58
2022/06/28 02:25:19;;;;;;;27.02;24.45;;;11.80;99.90;;;;;;5075912;28;20050;-58
2022/06/28 02:27:47;;;;;;;26.13;23.48;;;11.80;99.90;;;;;;5089049;28;20111;-66
2022/06/28 02:30:14;;;;;;;27.10;24.40;;;11.80;99.90;;;;;;5082971;28;20048;-64
2022/06/28 02:32:40;;;;;;;28.95;24.83;;;11.80;99.90;;;;;;5067531;28;20048;-65
2022/06/28 02:40:36;;;;;;;25.65;22.85;;;11.70;99.90;;;;;;5090043;28;20051;-64
2022/06/28 02:43:02;;;;;;;25.20;22.55;;;11.70;99.90;;;;;;5110521;28;20733;-64
2022/06/28 02:45:32;;;;;;;22.98;20.90;;;11.70;99.90;;;;;;5094958;28;20323;-64
2022/06/28 02:47:59;;;;;;;27.15;24.35;;;11.70;99.90;;;;;;5086872;27;20388;-65
2022/06/28 02:50:26;;;;;;;27.25;24.65;;;11.60;99.90;;;;;;5100259;28;20414;-65
2022/06/28 02:52:52;;;;;;;25.98;23.55;;;11.70;99.90;;;;;;5096734;27;20505;-64
2022/06/28 02:55:19;;;;;;;27.33;24.27;;;11.60;99.90;;;;;;5061633;28;20132;-64
2022/06/28 02:57:45;;;;;;;27.35;24.35;;;11.60;99.90;;;;;;5099273;28;20506;-64
2022/06/28 03:00:16;;;;;;;27.23;24.13;;;11.60;99.90;;;;;;5089806;27;20044;-64
2022/06/28 03:02:44;;;;;;;28.00;25.10;;;11.60;99.90;;;;;;5103010;28;20263;-64
2022/06/28 03:05:14;;;;;;;26.60;23.90;;;11.60;99.90;;;;;;5063791;28;20069;-64
2022/06/28 03:07:42;;;;;;;28.50;25.55;;;11.60;99.90;;;;;;5095561;27;21061;-64
2022/06/28 03:10:09;;;;;;;28.40;24.52;;;11.60;99.90;;;;;;5072247;28;20099;-64
2022/06/28 03:12:36;;;;;;;27.00;24.17;;;11.60;99.90;;;;;;5114734;27;20456;-64
2022/06/28 03:15:03;;;;;;;28.58;25.77;;;11.60;99.90;;;;;;5097402;27;20554;-64
2022/06/28 03:17:29;;;;;;;27.77;24.80;;;11.60;99.90;;;;;;5108164;27;20039;-64
2022/06/28 03:19:55;;;;;;;26.75;23.60;;;11.60;99.90;;;;;;5070075;28;20490;-65
2022/06/28 03:22:21;;;;;;;23.88;21.58;;;11.50;99.90;;;;;;5106172;27;20538;-65
2022/06/28 03:24:48;;;;;;;25.27;22.67;;;11.60;99.90;;;;;;5081760;28;20486;-64
2022/06/28 03:27:14;;;;;;;27.75;24.33;;;11.60;99.90;;;;;;5092503;27;20054;-65
2022/06/28 03:29:41;;;;;;;27.73;23.88;;;11.50;99.90;;;;;;5064609;28;20128;-64
2022/06/28 03:32:11;;;;;;;26.25;23.45;;;11.60;99.90;;;;;;5069533;27;20043;-65
2022/06/28 03:34:38;;;;;;;27.20;24.15;;;11.60;99.90;;;;;;5080256;28;20055;-64
2022/06/28 03:37:04;;;;;;;28.42;25.50;;;11.60;99.90;;;;;;5088717;27;20293;-65
2022/06/28 03:39:35;;;;;;;27.13;24.33;;;11.60;99.90;;;;;;5083514;28;20085;-64
2022/06/28 03:42:02;;;;;;;28.02;24.20;;;11.60;99.90;;;;;;5071040;27;20078;-65
2022/06/28 03:44:30;;;;;;;28.08;23.58;;;11.60;99.90;;;;;;5092652;27;20041;-65
2022/06/28 03:46:59;;;;;;;24.50;21.90;;;11.60;99.90;;;;;;5046051;27;20146;-64
2022/06/28 03:50:00;;;;;;;24.98;22.45;;;11.60;99.90;;;;;;5038151;28;21028;-64
2022/06/28 03:52:59;;;;;;;25.70;22.75;;;11.60;99.90;;;;;;5089180;27;20508;-64
2022/06/28 03:55:43;;;;;;;26.30;23.58;;;11.60;99.90;;;;;;5100620;27;20036;-65
2022/06/28 03:58:10;;;;;;;30.75;23.88;;;11.60;99.90;;;;;;5090757;28;20058;-64
2022/06/28 04:00:36;;;;;;;26.98;23.95;;;11.70;99.90;;;;;;5058320;28;20056;-64
2022/06/28 04:03:03;;;;;;;27.73;24.92;;;11.70;99.90;;;;;;5064272;28;20055;-66
2022/06/28 04:05:38;;;;;;;28.80;25.52;;;11.70;99.90;;;;;;5089896;28;20144;-64
2022/06/28 04:08:05;;;;;;;25.23;22.58;;;11.70;99.90;;;;;;5091605;27;20477;-64
2022/06/28 04:11:13;;;;;;;27.65;24.75;;;11.70;99.90;;;;;;5087472;28;20079;-64
2022/06/28 04:13:38;;;;;;;26.23;23.60;;;11.70;99.90;;;;;;5093889;27;20044;-64
2022/06/28 04:16:05;;;;;;;26.33;23.63;;;11.80;99.90;;;;;;5084132;28;20067;-64
2022/06/28 04:18:32;;;;;;;26.98;23.95;;;11.80;99.90;;;;;;5098439;27;20101;-58
2022/06/28 04:21:18;;;;;;;29.17;25.00;;;11.90;99.90;;;;;;5090468;28;20117;-58
2022/06/28 04:23:47;;;;;;;29.25;26.25;;;11.90;99.90;;;;;;5079054;28;20403;-58
2022/06/28 04:26:13;;;;;;;27.95;25.05;;;12.00;99.90;;;;;;5066097;28;20050;-58
2022/06/28 04:28:42;;;;;;;30.85;27.42;;;12.00;99.90;;;;;;5071504;28;20671;-59
2022/06/28 04:31:21;;;;;;;32.83;27.85;;;12.10;99.90;;;;;;5083982;28;20097;-59
2022/06/28 04:33:47;;;;;;;31.85;28.50;;;12.10;99.90;;;;;;5086192;28;20051;-59
2022/06/28 04:36:15;;;;;;;32.00;26.80;;;12.20;99.90;;;;;;5079433;28;20056;-58
2022/06/28 04:38:45;;;;;;;32.08;27.60;;;12.20;99.90;;;;;;5081322;28;20043;-58
2022/06/28 04:41:15;;;;;;;32.00;27.73;;;12.30;99.90;;;;;;5089204;28;20066;-63
2022/06/28 04:43:55;;;;;;;30.23;27.02;;;12.40;99.90;;;;;;5094757;27;20047;-63
2022/06/28 04:46:26;;;;;;;;;;;12.40;99.90;;;;;;5096001;27;20510;-64
2022/06/28 04:48:54;;;;;;;29.23;26.25;;;12.50;99.90;;;;;;5122162;27;19920;-58
2022/06/28 04:51:27;;;;;;;30.48;27.38;;;12.50;99.90;;;;;;5081557;27;20047;-58
2022/06/28 04:53:54;;;;;;;29.75;26.75;;;12.60;99.90;;;;;;5080655;28;20330;-62
2022/06/28 04:56:23;;;;;;;30.25;27.15;;;12.70;99.90;;;;;;5094803;28;20134;-63
2022/06/28 04:58:50;;;;;;;31.77;28.38;;;12.70;99.90;;;;;;5112058;27;20051;-65
2022/06/28 05:01:17;;;;;;;32.60;29.20;;;12.80;99.90;;;;;;5085986;28;20043;-65
2022/06/28 05:03:45;;;;;;;33.30;29.90;;;12.90;99.90;;;;;;5079162;28;20063;-64
2022/06/28 05:06:30;;;;;;;32.03;28.65;;;13.00;99.90;;;;;;5094977;28;20402;-64
2022/06/28 05:08:58;;;;;;;32.65;28.60;;;13.10;99.90;;;;;;5067040;28;20059;-63
2022/06/28 05:11:25;;;;;;;29.10;26.30;;;13.40;99.90;;;;;;5098799;27;20055;-63
2022/06/28 05:14:07;;;;;;;25.40;23.10;;;13.70;99.90;;;;;;5075701;28;20108;-63
2022/06/28 05:16:34;;;;;;;21.80;19.67;;;14.20;99.90;;;;;;5090468;27;20060;-63
2022/06/28 05:19:00;;;;;;;18.65;16.85;;;14.60;99.90;;;;;;5082514;28;20507;-62
2022/06/28 05:21:34;;;;;;;17.95;16.05;;;14.90;99.90;;;;;;5085677;27;20299;-63
2022/06/28 05:24:00;;;;;;;16.52;14.85;;;15.10;99.90;;;;;;5094813;27;20092;-64
2022/06/28 05:26:44;;;;;;;16.58;14.82;;;15.40;99.90;;;;;;5076601;28;20044;-64
2022/06/28 05:29:16;;;;;;;15.38;13.85;;;15.50;99.90;;;;;;5076603;28;20141;-65
2022/06/28 05:31:42;;;;;;;14.85;13.38;;;15.60;99.90;;;;;;5099657;27;20795;-62
2022/06/28 05:34:08;;;;;;;14.52;13.13;;;15.70;99.90;;;;;;5056251;28;20132;-62
2022/06/28 05:36:37;;;;;;;16.27;12.85;;;15.80;99.90;;;;;;5075212;28;20055;-60
2022/06/28 05:39:04;;;;;;;14.00;12.60;;;16.00;99.90;;;;;;5073241;28;20058;-62
2022/06/28 05:41:32;;;;;;;14.38;12.82;;;16.10;99.90;;;;;;5073704;28;20055;-62
2022/06/28 05:43:59;;;;;;;12.07;10.65;;;16.30;99.90;;;;;;5080328;28;20046;-62
2022/06/28 05:46:26;;;;;;;16.40;14.30;;;16.30;99.90;;;;;;5081383;27;20134;-62
2022/06/28 05:48:52;;;;;;;12.40;11.10;;;16.50;99.90;;;;;;5082848;28;20177;-60
2022/06/28 05:51:18;;;;;;;14.05;11.00;;;16.60;99.90;;;;;;5096091;27;20056;-59
2022/06/28 05:53:45;;;;;;;11.45;10.23;;;16.70;99.90;;;;;;5056810;28;20082;-59
2022/06/28 05:56:11;;;;;;;12.95;10.25;;;16.80;99.90;;;;;;5083937;28;20132;-59
2022/06/28 05:58:40;;;;;;;10.80;9.52;;;17.00;99.90;;;;;;5082498;28;20044;-59
2022/06/28 06:01:06;;;;;;;10.52;9.52;;;17.20;99.90;;;;;;5089701;28;20113;-62
2022/06/28 06:03:33;;;;;;;14.27;9.52;;;17.30;99.90;;;;;;5094225;28;20058;-59
2022/06/28 06:06:00;;;;;;;15.18;8.75;;;17.30;99.90;;;;;;5062272;28;20078;-59
2022/06/28 06:08:26;;;;;;;9.98;8.80;;;17.30;99.90;;;;;;5097207;28;20512;-59
2022/06/28 06:10:52;;;;;;;11.30;8.63;;;17.60;99.90;;;;;;5078176;28;20060;-59
2022/06/28 06:13:18;;;;;;;13.55;9.32;;;17.80;99.90;;;;;;5069824;28;20136;-58
2022/06/28 06:15:44;;;;;;;12.68;8.82;;;17.80;99.90;;;;;;5090945;28;20058;-58
2022/06/28 06:18:10;;;;;;;10.30;7.95;;;17.80;99.90;;;;;;5057478;28;20056;-58
2022/06/28 06:20:37;;;;;;;12.63;8.05;;;17.90;99.90;;;;;;5090309;28;20411;-59
2022/06/28 06:23:04;;;;;;;14.40;8.30;;;18.10;99.90;;;;;;5069666;28;20051;-61
2022/06/28 06:25:51;;;;;;;9.32;7.18;;;18.20;99.90;;;;;;5037068;28;20428;-61
2022/06/28 06:28:17;;;;;;;10.27;7.03;;;18.20;99.90;;;;;;5090053;28;20101;-61
2022/06/28 06:30:46;;;;;;;11.13;7.72;;;18.30;99.90;;;;;;5072904;28;20047;-61
2022/06/28 06:33:15;;;;;;;10.23;6.72;;;18.40;99.90;;;;;;5077927;28;20137;-61
2022/06/28 06:36:01;;;;;;;8.30;6.53;;;18.60;99.90;;;;;;5091263;28;20047;-60
2022/06/28 06:38:27;;;;;;;11.20;6.88;;;18.50;99.90;;;;;;5093426;28;20043;-60
2022/06/28 06:40:55;;;;;;;8.27;6.78;;;18.60;99.90;;;;;;5093267;28;20525;-60
2022/06/28 06:43:22;;;;;;;9.77;6.38;;;18.80;99.90;;;;;;5096661;28;20122;-60
2022/06/28 06:45:54;;;;;;;13.40;6.25;;;19.00;99.90;;;;;;5088090;28;20124;-60
2022/06/28 06:48:24;;;;;;;14.02;6.60;;;19.00;99.90;;;;;;5055752;28;20081;-61
2022/06/28 06:50:50;;;;;;;13.20;6.40;;;19.10;99.90;;;;;;5075415;28;20056;-63
2022/06/28 06:53:18;;;;;;;10.02;6.18;;;19.00;99.90;;;;;;5092813;28;20082;-61
2022/06/28 06:55:47;;;;;;;10.13;5.18;;;19.00;99.90;;;;;;5085447;28;20048;-59
2022/06/28 06:58:13;;;;;;;8.73;5.22;;;19.00;99.90;;;;;;5078068;28;20161;-60
2022/06/28 07:00:40;;;;;;;8.88;4.80;;;19.20;99.90;;;;;;5082985;28;20047;-60
2022/06/28 07:03:06;;;;;;;9.80;5.68;;;19.20;99.90;;;;;;5067266;28;20502;-59
2022/06/28 07:05:32;;;;;;;10.57;5.97;;;19.30;99.90;;;;;;5090263;28;20077;-62
2022/06/28 07:07:59;;;;;;;10.00;6.35;;;19.40;99.90;;;;;;5088220;28;20119;-61
2022/06/28 07:10:33;;;;;;;14.40;5.47;;;19.40;99.90;;;;;;5089510;28;21416;-61
2022/06/28 07:13:01;;;;;;;12.27;7.50;;;19.70;99.90;;;;;;5060168;28;20062;-61
2022/06/28 07:15:27;;;;;;;10.23;5.30;;;19.90;99.90;;;;;;5087836;28;20063;-62
2022/06/28 07:17:53;;;;;;;12.50;4.95;;;20.20;99.90;;;;;;5093912;28;20082;-61
2022/06/28 07:20:19;;;;;;;10.07;5.50;;;20.10;99.90;;;;;;5089678;28;20043;-61
2022/06/28 07:22:45;;;;;;;11.30;5.70;;;19.70;99.90;;;;;;5087786;28;20044;-62
2022/06/28 07:25:17;;;;;;;11.98;6.18;;;19.60;99.90;;;;;;5088943;28;20520;-62
2022/06/28 07:27:44;;;;;;;9.45;4.78;;;20.00;99.90;;;;;;5089124;28;20447;-64
2022/06/28 07:30:10;;;;;;;8.43;5.00;;;20.10;99.90;;;;;;5059071;28;20079;-62
2022/06/28 07:32:37;;;;;;;11.07;5.20;;;20.20;99.90;;;;;;5091726;28;20044;-61
2022/06/28 07:35:05;;;;;;;12.07;5.80;;;20.40;99.90;;;;;;5077580;28;20544;-61
2022/06/28 07:37:31;;;;;;;10.75;4.90;;;20.40;99.90;;;;;;5087635;28;20528;-60
2022/06/28 07:39:58;;;;;;;10.57;5.13;;;20.70;99.90;;;;;;5077175;28;20055;-61
2022/06/28 07:42:24;;;;;;;9.70;5.53;;;20.90;99.90;;;;;;5096033;28;20042;-62
2022/06/28 07:45:17;;;;;;;10.05;5.13;;;21.30;99.90;;;;;;5071582;28;20071;-61
2022/06/28 07:47:47;;;;;;;12.02;4.95;;;21.70;99.90;;;;;;5061341;28;20050;-61
2022/06/28 07:53:02;;;;;;;9.60;4.80;;;21.50;99.90;;;;;;5094416;28;20040;-63
2022/06/28 07:55:40;;;;;;;10.73;4.68;;;21.20;99.90;;;;;;5093374;28;20402;-62
2022/06/28 07:58:11;;;;;;;9.90;5.20;;;21.20;99.90;;;;;;5096010;27;20055;-63
2022/06/28 08:00:38;;;;;;;9.02;4.32;;;20.90;99.90;;;;;;5081469;28;20064;-62
2022/06/28 08:03:17;;;;;;;8.52;4.18;;;21.00;99.90;;;;;;5098081;27;20050;-62
2022/06/28 08:05:46;;;;;;;11.70;5.32;;;20.70;99.90;;;;;;5096316;27;20052;-62
2022/06/28 08:08:14;;;;;;;8.65;3.63;;;21.00;99.90;;;;;;5099488;27;20107;-62
2022/06/28 08:10:42;;;;;;;10.40;3.85;;;21.00;99.90;;;;;;5064106;28;20377;-62
2022/06/28 08:13:12;;;;;;;7.60;3.50;;;21.30;99.90;;;;;;5093801;28;20044;-61
2022/06/28 08:15:39;;;;;;;7.63;3.47;;;21.50;99.90;;;;;;5098793;27;21615;-62
2022/06/28 08:18:06;;;;;;;8.23;3.22;;;21.60;99.90;;;;;;5102616;27;20043;-61
2022/06/28 08:20:33;;;;;;;9.25;5.85;;;21.50;99.90;;;;;;5104607;27;20483;-60
2022/06/28 08:23:02;;;;;;;9.63;3.95;;;21.50;99.90;;;;;;5082665;27;20315;-60
2022/06/28 08:25:30;;;;;;;5.18;2.60;;;21.90;99.90;;;;;;5086448;27;20058;-60
2022/06/28 08:27:58;;;;;;;6.55;2.38;;;22.60;99.90;;;;;;5103225;27;20075;-61
2022/06/28 08:30:25;;;;;;;9.35;2.92;;;22.70;99.90;;;;;;5094511;27;20055;-61
2022/06/28 08:32:52;;;;;;;5.85;2.38;;;22.20;99.90;;;;;;5058963;27;20084;-61
2022/06/28 08:35:19;;;;;;;8.07;2.78;;;21.90;99.90;;;;;;5101256;27;20122;-61
2022/06/28 08:37:45;;;;;;;9.90;3.53;;;21.50;99.90;;;;;;5063081;27;20039;-62
2022/06/28 08:40:12;;;;;;;6.03;2.65;;;21.30;99.90;;;;;;5097750;27;20050;-59
2022/06/28 08:42:46;;;;;;;9.90;3.42;;;20.90;99.90;;;;;;5109983;27;20050;-63
2022/06/28 08:45:13;;;;;;;7.72;3.17;;;20.90;99.90;;;;;;5104099;27;20035;-62
2022/06/28 08:47:42;;;;;;;6.63;2.85;;;21.10;99.90;;;;;;5097587;27;20049;-61
2022/06/28 08:50:15;;;;;;;7.55;2.78;;;21.60;99.90;;;;;;5090831;27;20052;-58
2022/06/28 08:52:42;;;;;;;6.93;2.03;;;21.90;99.90;;;;;;5093590;27;20052;-58
2022/06/28 08:55:09;;;;;;;9.18;3.58;;;22.50;99.90;;;;;;5067095;27;20580;-61
2022/06/28 08:57:36;;;;;;;6.22;2.35;;;22.90;99.90;;;;;;5081716;27;20639;-62
2022/06/28 09:00:11;;;;;;;8.82;2.45;;;22.80;99.90;;;;;;5096668;27;20075;-62
2022/06/28 09:02:37;;;;;;;4.45;1.75;;;22.20;99.90;;;;;;5087809;27;20048;-61
2022/06/28 09:05:06;;;;;;;6.25;2.10;;;22.00;99.90;;;;;;5105538;27;20516;-61
2022/06/28 09:07:32;;;;;;;5.90;2.40;;;21.60;99.90;;;;;;5078115;27;20533;-59
2022/06/28 09:10:02;;;;;;;8.68;2.25;;;21.70;99.90;;;;;;5099996;27;20198;-59
2022/06/28 09:12:31;;;;;;;9.80;2.10;;;22.20;99.90;;;;;;5105202;27;20035;-59
2022/06/28 09:14:57;;;;;;;9.30;4.70;;;22.70;99.90;;;;;;5108567;27;20048;-61
2022/06/28 09:17:25;;;;;;;6.13;1.77;;;23.00;99.90;;;;;;5102920;27;20083;-62
2022/06/28 09:19:58;;;;;;;8.85;1.98;;;23.50;99.90;;;;;;5104428;27;20090;-61
2022/06/28 09:22:35;;;;;;;7.35;2.08;;;24.00;99.90;;;;;;5098340;27;20054;-62
2022/06/28 09:25:13;;;;;;;9.90;1.98;;;23.80;99.90;;;;;;5089823;27;20556;-63
2022/06/28 09:27:42;;;;;;;4.05;1.52;;;23.60;99.90;;;;;;5105463;27;20451;-62
2022/06/28 09:30:11;;;;;;;6.85;1.83;;;24.00;99.90;;;;;;5099669;27;20065;-62
2022/06/28 09:32:38;;;;;;;6.28;1.60;;;23.50;99.90;;;;;;5060291;27;20047;-61
2022/06/28 09:35:09;;;;;;;8.23;2.53;;;23.00;99.90;;;;;;5090621;27;20055;-61
2022/06/28 09:37:48;;;;;;;7.43;3.38;;;23.40;99.90;;;;;;5100022;27;20051;-61
2022/06/28 09:40:24;;;;;;;7.70;1.90;;;23.70;99.90;;;;;;5099113;27;20051;-62
2022/06/28 09:43:29;;;;;;;6.75;2.05;;;24.10;99.90;;;;;;5099499;27;20047;-61
2022/06/28 09:45:56;;;;;;;8.35;2.42;;;24.70;99.90;;;;;;5030346;27;20074;-61
2022/06/28 09:48:22;;;;;;;5.65;1.70;;;25.00;99.90;;;;;;5100930;27;20039;-61
2022/06/28 09:50:56;;;;;;;9.52;1.80;;;25.10;99.90;;;;;;5089400;27;20051;-57
2022/06/28 09:53:23;;;;;;;5.70;1.50;;;24.80;99.70;;;;;;5080648;28;20053;-56
2022/06/28 09:55:53;;;;;;;9.23;2.13;;;24.80;99.10;;;;;;5094084;27;20050;-57
2022/06/28 09:58:22;;;;;;;4.82;1.00;;;24.80;99.90;;;;;;5073820;28;20101;-62
2022/06/28 10:00:49;;;;;;;4.28;1.25;;;25.10;95.10;;;;;;5090470;27;20880;-59
2022/06/28 10:03:16;;;;;;;4.35;1.15;;;25.00;99.30;;;;;;5090770;27;20047;-56
2022/06/28 10:05:43;;;;;;;5.75;1.58;;;24.80;99.90;;;;;;5089685;27;20816;-56
2022/06/28 10:08:10;;;;;;;6.35;1.35;;;24.60;99.90;;;;;;5090261;27;20051;-56
2022/06/28 10:10:37;;;;;;;4.78;1.45;;;23.70;99.90;;;;;;5103346;27;20044;-56
2022/06/28 10:15:57;;;;;;;5.00;1.48;;;24.80;98.40;;;;;;5098296;27;20051;-57
2022/06/28 10:18:26;;;;;;;3.40;1.02;;;25.00;79.50;;;;;;5097554;27;20483;-61
2022/06/28 10:20:52;;;;;;;4.53;1.08;;;25.10;80.30;;;;;;5094147;28;20048;-61
2022/06/28 10:23:40;;;;;;;6.03;1.38;;;25.10;63.40;;;;;;5093591;28;20422;-61
2022/06/28 10:26:07;;;;;;;6.75;1.27;;;25.40;79.10;;;;;;5092011;28;20048;-61
2022/06/28 10:29:02;;;;;;;4.38;1.00;;;25.90;62.30;;;;;;5091005;28;20282;-62
2022/06/28 10:31:29;;;;;;;7.88;1.73;;;26.40;70.30;;;;;;5078660;28;20081;-57
2022/06/28 10:33:58;;;;;;;6.25;1.50;;;25.90;79.30;;;;;;5099166;28;20055;-60
2022/06/28 10:36:26;;;;;;;3.42;1.00;;;25.60;72.90;;;;;;5097182;28;20048;-61
2022/06/28 10:39:01;;;;;;;3.65;0.93;;;25.80;72.50;;;;;;5095213;28;20043;-62
2022/06/28 10:41:40;;;;;;;4.78;1.05;;;26.20;73.10;;;;;;5085846;28;20083;-62
2022/06/28 10:44:12;;;;;;;5.88;1.42;;;25.90;59.80;;;;;;5096348;28;20039;-62
2022/06/28 10:46:41;;;;;;;5.07;1.23;;;26.10;72.70;;;;;;5096863;28;20051;-62
2022/06/28 10:49:09;;;;;;;4.32;1.30;;;26.30;58.80;;;;;;5095835;28;20130;-62
2022/06/28 10:51:40;;;;;;;4.60;1.23;;;26.50;78.40;;;;;;5098883;28;20051;-62
2022/06/28 10:54:09;;;;;;;3.97;1.10;;;26.00;92.00;;;;;;5103078;28;20047;-62
2022/06/28 10:56:47;;;;;;;6.10;1.40;;;25.60;85.10;;;;;;5098992;28;20334;-57
2022/06/28 10:59:15;;;;;;;4.25;1.00;;;25.60;83.10;;;;;;5107507;28;20071;-62
2022/06/28 11:01:44;;;;;;;5.50;1.05;;;25.40;86.50;;;;;;5101253;28;20040;-62
2022/06/28 11:04:22;;;;;;;4.88;1.30;;;25.80;73.00;;;;;;5094086;28;20534;-62
2022/06/28 11:06:54;;;;;;;;;;;26.20;87.20;;;;;;5057340;28;20048;-63
2022/06/28 11:09:44;;;;;;;3.80;0.90;;;25.10;64.10;;;;;;5108649;27;20024;-61
2022/06/28 11:12:36;;;;;;;6.45;1.48;;;25.60;72.40;;;;;;5074000;27;20138;-62
2022/06/28 11:15:10;;;;;;;5.68;1.48;;;25.30;93.70;;;;;;5093456;27;20048;-62
2022/06/28 11:17:42;;;;;;;6.15;1.30;;;25.00;91.70;;;;;;5097921;28;20079;-62
2022/06/28 11:20:20;;;;;;;5.05;1.20;;;25.40;86.10;;;;;;5096051;28;20361;-63
2022/06/28 11:22:48;;;;;;;4.43;1.40;;;25.40;79.70;;;;;;5093348;28;20039;-62
2022/06/28 11:25:21;;;;;;;4.43;1.40;;;25.50;79.50;;;;;;5089852;28;20494;-64
2022/06/28 11:27:55;;;;;;;4.53;0.90;;;26.00;84.20;;;;;;5094260;28;20372;-61
2022/06/28 11:30:27;;;;;;;8.93;6.93;;;26.60;70.30;;;;;;5096345;27;20043;-62
2022/06/28 11:32:58;;;;;;;13.95;11.75;;;26.70;82.60;;;;;;5097777;28;20043;-61
2022/06/28 11:35:30;;;;;;;21.38;19.10;;;26.90;63.20;;;;;;5096917;28;20576;-61
2022/06/28 11:38:02;;;;;;;7.78;3.10;;;26.90;74.20;;;;;;5092379;28;20040;-61
2022/06/28 11:40:51;;;;;;;5.75;2.15;;;26.50;75.10;;;;;;5080530;27;20059;-56
2022/06/28 11:43:20;;;;;;;12.32;7.13;;;26.40;81.60;;;;;;5076958;28;20509;-56
2022/06/28 11:45:48;;;;;;;8.20;3.30;;;26.90;67.80;;;;;;5098528;28;20050;-61
2022/06/28 11:48:18;;;;;;;5.03;1.88;;;27.20;62.60;;;;;;5093512;28;20055;-60
2022/06/28 11:50:45;;;;;;;14.30;12.82;;;26.80;56.20;;;;;;5073162;28;20086;-65
2022/06/28 11:53:14;;;;;;;8.75;4.45;;;25.90;57.60;;;;;;5092790;28;20505;-60
2022/06/28 11:55:40;;;;;;;8.20;3.55;;;25.70;65.90;;;;;;5077605;28;20316;-62
2022/06/28 11:58:10;;;;;;;4.72;1.58;;;26.40;59.30;;;;;;5095650;28;20052;-62
2022/06/28 12:01:11;;;;;;;5.05;2.08;;;27.10;57.00;;;;;;5094715;27;20043;-64
2022/06/28 12:03:43;;;;;;;11.88;7.82;;;27.50;60.90;;;;;;5086146;28;20157;-62
2022/06/28 12:06:18;;;;;;;8.05;3.25;;;27.20;62.60;;;;;;5078698;28;20390;-59
2022/06/28 12:08:55;;;;;;;5.18;1.60;;;27.50;57.30;;;;;;5075964;28;20048;-59
2022/06/28 12:11:32;;;;;;;6.45;1.70;;;28.00;56.50;;;;;;5097237;28;20069;-59
2022/06/28 12:14:09;;;;;;;9.73;6.93;;;28.30;55.60;;;;;;5093376;27;20047;-58
2022/06/28 12:16:35;;;;;;;6.40;2.58;;;28.70;54.90;;;;;;5134883;27;20141;-58
2022/06/28 12:19:06;;;;;;;6.80;1.80;;;28.80;50.90;;;;;;5119077;27;20129;-58
2022/06/28 12:21:32;;;;;;;5.47;2.17;;;28.90;51.20;;;;;;5119382;27;20046;-57
2022/06/28 12:23:59;;;;;;;5.55;1.80;;;28.10;48.70;;;;;;5116215;27;20499;-57
2022/06/28 12:26:45;;;;;;;4.93;1.25;;;28.60;50.60;;;;;;5146546;27;20039;-58
2022/06/28 12:29:12;;;;;;;12.55;11.25;;;28.20;49.20;;;;;;5067446;27;20049;-56
2022/06/28 12:31:43;;;;;;;12.30;8.05;;;28.40;52.20;;;;;;5139307;27;20039;-56
2022/06/28 12:34:15;;;;;;;29.75;27.05;;;28.50;50.20;;;;;;5089306;27;20404;-56
2022/06/28 12:36:41;;;;;;;6.70;3.08;;;28.80;50.00;;;;;;5122096;27;20516;-56
2022/06/28 12:39:10;;;;;;;6.13;2.08;;;28.60;48.40;;;;;;5117924;27;20053;-57
2022/06/28 12:41:36;;;;;;;5.38;3.08;;;28.60;48.10;;;;;;5103851;27;20043;-56
2022/06/28 12:44:02;;;;;;;6.40;3.47;;;27.80;47.90;;;;;;5136165;27;20486;-56
2022/06/28 12:46:28;;;;;;;4.80;1.17;;;27.70;47.60;;;;;;5142359;27;20039;-54
2022/06/28 12:48:55;;;;;;;3.72;0.98;;;27.30;49.30;;;;;;5106249;27;20604;-56
2022/06/28 12:51:21;;;;;;;4.70;1.85;;;27.10;50.40;;;;;;5104481;27;20073;-56
2022/06/28 12:53:50;;;;;;;7.07;2.90;;;27.10;49.30;;;;;;5101318;27;20047;-54
2022/06/28 12:56:19;;;;;;;9.40;4.68;;;26.50;49.60;;;;;;5119255;27;20054;-55
2022/06/28 12:58:47;;;;;;;5.97;2.95;;;26.50;50.10;;;;;;5121962;27;20057;-54
2022/06/28 13:01:13;;;;;;;6.22;1.42;;;27.20;51.20;;;;;;5143894;27;20047;-54
2022/06/28 13:03:41;;;;;;;5.53;2.95;;;27.60;51.80;;;;;;5119502;27;20475;-55